sensor_id;sensor_type;location;lat;lon;timestamp;P1;durP1;ratioP1;P2;durP2;ratioP2
71087;SDS011;58747;50.674;4.616;2022-12-18T00:02:23;18.07;;;9.70;;
71087;SDS011;58747;50.674;4.616;2022-12-18T00:04:51;22.90;;;10.73;;
71087;SDS011;58747;50.674;4.616;2022-12-18T00:07:17;20.43;;;8.90;;
71087;SDS011;58747;50.674;4.616;2022-12-18T00:09:42;20.00;;;9.97;;
71087;SDS011;58747;50.674;4.616;2022-12-18T00:12:10;23.90;;;11.27;;
71087;SDS011;58747;50.674;4.616;2022-12-18T00:14:54;22.35;;;9.27;;
71087;SDS011;58747;50.674;4.616;2022-12-18T00:17:24;26.95;;;10.02;;
71087;SDS011;58747;50.674;4.616;2022-12-18T00:19:49;20.90;;;9.27;;
71087;SDS011;58747;50.674;4.616;2022-12-18T00:22:18;20.42;;;9.10;;
71087;SDS011;58747;50.674;4.616;2022-12-18T00:24:45;20.10;;;9.40;;
71087;SDS011;58747;50.674;4.616;2022-12-18T00:27:11;22.13;;;9.25;;
71087;SDS011;58747;50.674;4.616;2022-12-18T00:29:39;17.00;;;9.57;;
71087;SDS011;58747;50.674;4.616;2022-12-18T00:32:10;16.08;;;7.75;;
71087;SDS011;58747;50.674;4.616;2022-12-18T00:34:36;12.97;;;7.07;;
71087;SDS011;58747;50.674;4.616;2022-12-18T00:37:01;13.97;;;7.27;;
71087;SDS011;58747;50.674;4.616;2022-12-18T00:39:26;15.60;;;7.70;;
71087;SDS011;58747;50.674;4.616;2022-12-18T00:41:52;11.77;;;7.23;;
71087;SDS011;58747;50.674;4.616;2022-12-18T00:44:36;13.63;;;6.25;;
71087;SDS011;58747;50.674;4.616;2022-12-18T00:47:01;12.47;;;6.00;;
71087;SDS011;58747;50.674;4.616;2022-12-18T00:49:26;13.40;;;5.97;;
71087;SDS011;58747;50.674;4.616;2022-12-18T00:51:52;10.98;;;5.70;;
71087;SDS011;58747;50.674;4.616;2022-12-18T00:54:17;12.20;;;7.00;;
71087;SDS011;58747;50.674;4.616;2022-12-18T00:56:43;14.70;;;6.57;;
71087;SDS011;58747;50.674;4.616;2022-12-18T00:59:08;15.30;;;6.47;;
71087;SDS011;58747;50.674;4.616;2022-12-18T01:01:33;14.53;;;6.73;;
71087;SDS011;58747;50.674;4.616;2022-12-18T01:03:59;15.32;;;6.70;;
71087;SDS011;58747;50.674;4.616;2022-12-18T01:06:26;12.60;;;6.88;;
71087;SDS011;58747;50.674;4.616;2022-12-18T01:08:51;15.37;;;8.70;;
71087;SDS011;58747;50.674;4.616;2022-12-18T01:11:17;13.70;;;7.53;;
71087;SDS011;58747;50.674;4.616;2022-12-18T01:13:44;14.18;;;7.60;;
71087;SDS011;58747;50.674;4.616;2022-12-18T01:16:13;15.45;;;8.00;;
71087;SDS011;58747;50.674;4.616;2022-12-18T01:18:40;13.18;;;8.00;;
71087;SDS011;58747;50.674;4.616;2022-12-18T01:21:09;15.07;;;7.88;;
71087;SDS011;58747;50.674;4.616;2022-12-18T01:23:36;18.17;;;8.07;;
71087;SDS011;58747;50.674;4.616;2022-12-18T01:26:06;15.25;;;7.45;;
71087;SDS011;58747;50.674;4.616;2022-12-18T01:28:32;16.70;;;8.15;;
71087;SDS011;58747;50.674;4.616;2022-12-18T01:30:59;16.47;;;7.17;;
71087;SDS011;58747;50.674;4.616;2022-12-18T01:33:34;14.18;;;7.38;;
71087;SDS011;58747;50.674;4.616;2022-12-18T01:35:59;10.83;;;6.70;;
71087;SDS011;58747;50.674;4.616;2022-12-18T01:38:25;13.60;;;6.47;;
71087;SDS011;58747;50.674;4.616;2022-12-18T01:40:56;15.93;;;6.77;;
71087;SDS011;58747;50.674;4.616;2022-12-18T01:43:41;15.93;;;7.05;;
71087;SDS011;58747;50.674;4.616;2022-12-18T01:46:06;14.38;;;7.03;;
71087;SDS011;58747;50.674;4.616;2022-12-18T01:48:32;17.60;;;7.77;;
71087;SDS011;58747;50.674;4.616;2022-12-18T01:50:57;13.17;;;6.50;;
71087;SDS011;58747;50.674;4.616;2022-12-18T01:53:23;20.63;;;7.63;;
71087;SDS011;58747;50.674;4.616;2022-12-18T01:55:53;15.45;;;7.85;;
71087;SDS011;58747;50.674;4.616;2022-12-18T01:58:22;16.42;;;7.93;;
71087;SDS011;58747;50.674;4.616;2022-12-18T02:00:53;16.60;;;7.22;;
71087;SDS011;58747;50.674;4.616;2022-12-18T02:03:19;13.00;;;6.55;;
71087;SDS011;58747;50.674;4.616;2022-12-18T02:08:48;16.85;;;6.97;;
71087;SDS011;58747;50.674;4.616;2022-12-18T02:22:44;15.40;;;6.20;;
71087;SDS011;58747;50.674;4.616;2022-12-18T02:28:04;10.30;;;5.57;;
71087;SDS011;58747;50.674;4.616;2022-12-18T02:30:33;10.55;;;5.30;;
71087;SDS011;58747;50.674;4.616;2022-12-18T02:33:01;10.73;;;5.72;;
71087;SDS011;58747;50.674;4.616;2022-12-18T02:35:29;13.98;;;5.78;;
71087;SDS011;58747;50.674;4.616;2022-12-18T02:37:56;16.35;;;6.47;;
71087;SDS011;58747;50.674;4.616;2022-12-18T02:40:23;11.63;;;5.75;;
71087;SDS011;58747;50.674;4.616;2022-12-18T02:42:51;10.27;;;5.25;;
71087;SDS011;58747;50.674;4.616;2022-12-18T02:45:16;9.73;;;5.45;;
71087;SDS011;58747;50.674;4.616;2022-12-18T02:47:43;15.47;;;5.87;;
71087;SDS011;58747;50.674;4.616;2022-12-18T03:00:39;10.70;;;5.05;;
71087;SDS011;58747;50.674;4.616;2022-12-18T03:03:10;9.43;;;5.32;;
71087;SDS011;58747;50.674;4.616;2022-12-18T03:05:43;8.90;;;5.28;;
71087;SDS011;58747;50.674;4.616;2022-12-18T03:08:41;13.48;;;5.45;;
71087;SDS011;58747;50.674;4.616;2022-12-18T03:11:10;10.57;;;5.35;;
71087;SDS011;58747;50.674;4.616;2022-12-18T03:13:41;10.20;;;4.95;;
71087;SDS011;58747;50.674;4.616;2022-12-18T03:16:12;10.93;;;5.25;;
71087;SDS011;58747;50.674;4.616;2022-12-18T03:18:46;11.82;;;5.82;;
71087;SDS011;58747;50.674;4.616;2022-12-18T03:21:15;13.35;;;5.32;;
71087;SDS011;58747;50.674;4.616;2022-12-18T03:23:45;13.02;;;6.15;;
71087;SDS011;58747;50.674;4.616;2022-12-18T03:26:15;12.52;;;5.90;;
71087;SDS011;58747;50.674;4.616;2022-12-18T03:28:46;11.02;;;5.70;;
71087;SDS011;58747;50.674;4.616;2022-12-18T03:31:17;11.80;;;5.57;;
71087;SDS011;58747;50.674;4.616;2022-12-18T03:33:46;10.57;;;5.82;;
71087;SDS011;58747;50.674;4.616;2022-12-18T03:36:16;9.73;;;4.55;;
71087;SDS011;58747;50.674;4.616;2022-12-18T03:38:42;11.18;;;5.50;;
71087;SDS011;58747;50.674;4.616;2022-12-18T03:43:53;10.15;;;5.38;;
71087;SDS011;58747;50.674;4.616;2022-12-18T03:46:30;14.25;;;6.30;;
71087;SDS011;58747;50.674;4.616;2022-12-18T03:49:09;17.05;;;6.13;;
71087;SDS011;58747;50.674;4.616;2022-12-18T03:51:45;13.30;;;6.60;;
71087;SDS011;58747;50.674;4.616;2022-12-18T03:54:21;15.27;;;6.15;;
71087;SDS011;58747;50.674;4.616;2022-12-18T03:56:51;15.07;;;6.97;;
71087;SDS011;58747;50.674;4.616;2022-12-18T03:59:23;13.20;;;5.97;;
71087;SDS011;58747;50.674;4.616;2022-12-18T04:01:51;14.25;;;5.80;;
71087;SDS011;58747;50.674;4.616;2022-12-18T04:04:17;12.43;;;5.97;;
71087;SDS011;58747;50.674;4.616;2022-12-18T04:06:44;14.35;;;6.40;;
71087;SDS011;58747;50.674;4.616;2022-12-18T04:09:12;9.93;;;5.63;;
71087;SDS011;58747;50.674;4.616;2022-12-18T04:11:39;14.02;;;5.15;;
71087;SDS011;58747;50.674;4.616;2022-12-18T04:14:06;13.35;;;6.43;;
71087;SDS011;58747;50.674;4.616;2022-12-18T04:16:31;14.17;;;6.50;;
71087;SDS011;58747;50.674;4.616;2022-12-18T04:18:56;12.33;;;6.30;;
71087;SDS011;58747;50.674;4.616;2022-12-18T04:21:21;11.13;;;5.97;;
71087;SDS011;58747;50.674;4.616;2022-12-18T04:23:47;10.38;;;5.45;;
71087;SDS011;58747;50.674;4.616;2022-12-18T04:26:13;13.57;;;6.77;;
71087;SDS011;58747;50.674;4.616;2022-12-18T04:28:38;11.87;;;6.13;;
71087;SDS011;58747;50.674;4.616;2022-12-18T04:31:04;12.93;;;7.67;;
71087;SDS011;58747;50.674;4.616;2022-12-18T04:33:30;17.50;;;7.53;;
71087;SDS011;58747;50.674;4.616;2022-12-18T04:35:55;17.03;;;6.87;;
71087;SDS011;58747;50.674;4.616;2022-12-18T04:38:20;12.57;;;7.10;;
71087;SDS011;58747;50.674;4.616;2022-12-18T04:40:46;15.73;;;6.97;;
71087;SDS011;58747;50.674;4.616;2022-12-18T04:43:11;17.00;;;7.50;;
71087;SDS011;58747;50.674;4.616;2022-12-18T04:45:36;13.23;;;6.90;;
71087;SDS011;58747;50.674;4.616;2022-12-18T04:48:02;18.83;;;8.03;;
71087;SDS011;58747;50.674;4.616;2022-12-18T04:50:28;14.48;;;6.78;;
71087;SDS011;58747;50.674;4.616;2022-12-18T04:52:54;14.20;;;7.40;;
71087;SDS011;58747;50.674;4.616;2022-12-18T04:55:20;14.03;;;6.23;;
71087;SDS011;58747;50.674;4.616;2022-12-18T04:57:45;14.73;;;6.37;;
71087;SDS011;58747;50.674;4.616;2022-12-18T05:00:11;16.77;;;6.82;;
71087;SDS011;58747;50.674;4.616;2022-12-18T05:02:37;11.45;;;5.63;;
71087;SDS011;58747;50.674;4.616;2022-12-18T05:05:03;10.43;;;5.35;;
71087;SDS011;58747;50.674;4.616;2022-12-18T05:07:28;14.67;;;6.20;;
71087;SDS011;58747;50.674;4.616;2022-12-18T05:09:54;15.23;;;6.30;;
71087;SDS011;58747;50.674;4.616;2022-12-18T05:12:19;12.63;;;5.80;;
71087;SDS011;58747;50.674;4.616;2022-12-18T05:14:44;13.07;;;6.20;;
71087;SDS011;58747;50.674;4.616;2022-12-18T05:17:10;11.27;;;5.27;;
71087;SDS011;58747;50.674;4.616;2022-12-18T05:19:38;12.02;;;5.90;;
71087;SDS011;58747;50.674;4.616;2022-12-18T05:22:03;14.20;;;5.80;;
71087;SDS011;58747;50.674;4.616;2022-12-18T05:24:32;9.85;;;5.13;;
71087;SDS011;58747;50.674;4.616;2022-12-18T05:26:57;12.97;;;6.17;;
71087;SDS011;58747;50.674;4.616;2022-12-18T05:29:22;12.33;;;6.50;;
71087;SDS011;58747;50.674;4.616;2022-12-18T05:31:48;15.63;;;6.65;;
71087;SDS011;58747;50.674;4.616;2022-12-18T05:34:13;13.83;;;6.57;;
71087;SDS011;58747;50.674;4.616;2022-12-18T05:36:38;15.80;;;6.87;;
71087;SDS011;58747;50.674;4.616;2022-12-18T05:39:04;9.33;;;5.53;;
71087;SDS011;58747;50.674;4.616;2022-12-18T05:41:29;18.10;;;7.93;;
71087;SDS011;58747;50.674;4.616;2022-12-18T05:43:55;15.37;;;6.87;;
71087;SDS011;58747;50.674;4.616;2022-12-18T05:46:20;14.82;;;7.20;;
71087;SDS011;58747;50.674;4.616;2022-12-18T05:48:45;14.15;;;6.95;;
71087;SDS011;58747;50.674;4.616;2022-12-18T05:51:13;14.47;;;6.67;;
71087;SDS011;58747;50.674;4.616;2022-12-18T05:53:40;15.98;;;7.15;;
71087;SDS011;58747;50.674;4.616;2022-12-18T05:56:07;11.77;;;6.30;;
71087;SDS011;58747;50.674;4.616;2022-12-18T05:58:34;13.38;;;6.57;;
71087;SDS011;58747;50.674;4.616;2022-12-18T06:01:10;13.47;;;6.17;;
71087;SDS011;58747;50.674;4.616;2022-12-18T06:03:42;14.50;;;6.40;;
71087;SDS011;58747;50.674;4.616;2022-12-18T06:08:39;14.80;;;6.40;;
71087;SDS011;58747;50.674;4.616;2022-12-18T06:11:04;15.73;;;7.18;;
71087;SDS011;58747;50.674;4.616;2022-12-18T06:13:29;15.07;;;6.33;;
71087;SDS011;58747;50.674;4.616;2022-12-18T06:15:55;13.03;;;6.73;;
71087;SDS011;58747;50.674;4.616;2022-12-18T06:18:20;12.53;;;6.50;;
71087;SDS011;58747;50.674;4.616;2022-12-18T06:20:53;14.83;;;6.40;;
71087;SDS011;58747;50.674;4.616;2022-12-18T06:23:19;15.98;;;6.30;;
71087;SDS011;58747;50.674;4.616;2022-12-18T06:25:45;14.77;;;6.30;;
71087;SDS011;58747;50.674;4.616;2022-12-18T06:28:10;11.60;;;6.07;;
71087;SDS011;58747;50.674;4.616;2022-12-18T06:30:35;12.50;;;5.70;;
71087;SDS011;58747;50.674;4.616;2022-12-18T06:33:01;12.80;;;6.85;;
71087;SDS011;58747;50.674;4.616;2022-12-18T06:35:26;12.40;;;6.10;;
71087;SDS011;58747;50.674;4.616;2022-12-18T06:37:52;13.17;;;5.93;;
71087;SDS011;58747;50.674;4.616;2022-12-18T06:40:17;13.27;;;6.20;;
71087;SDS011;58747;50.674;4.616;2022-12-18T06:42:42;11.30;;;6.53;;
71087;SDS011;58747;50.674;4.616;2022-12-18T06:45:08;11.90;;;6.15;;
71087;SDS011;58747;50.674;4.616;2022-12-18T06:47:33;11.02;;;5.32;;
71087;SDS011;58747;50.674;4.616;2022-12-18T06:49:59;10.83;;;5.60;;
71087;SDS011;58747;50.674;4.616;2022-12-18T06:52:24;11.83;;;4.77;;
71087;SDS011;58747;50.674;4.616;2022-12-18T06:54:49;10.10;;;5.33;;
71087;SDS011;58747;50.674;4.616;2022-12-18T06:57:15;9.93;;;4.70;;
71087;SDS011;58747;50.674;4.616;2022-12-18T06:59:40;11.43;;;5.15;;
71087;SDS011;58747;50.674;4.616;2022-12-18T07:02:05;8.27;;;4.50;;
71087;SDS011;58747;50.674;4.616;2022-12-18T07:04:31;6.90;;;3.70;;
71087;SDS011;58747;50.674;4.616;2022-12-18T07:06:56;9.77;;;3.80;;
71087;SDS011;58747;50.674;4.616;2022-12-18T07:09:22;7.95;;;3.63;;
71087;SDS011;58747;50.674;4.616;2022-12-18T07:11:48;5.43;;;3.43;;
71087;SDS011;58747;50.674;4.616;2022-12-18T07:14:13;9.55;;;3.85;;
71087;SDS011;58747;50.674;4.616;2022-12-18T07:16:38;7.83;;;4.10;;
71087;SDS011;58747;50.674;4.616;2022-12-18T07:19:04;8.43;;;4.23;;
71087;SDS011;58747;50.674;4.616;2022-12-18T07:21:29;6.60;;;3.53;;
71087;SDS011;58747;50.674;4.616;2022-12-18T07:23:54;9.63;;;3.63;;
71087;SDS011;58747;50.674;4.616;2022-12-18T07:26:20;6.07;;;3.47;;
71087;SDS011;58747;50.674;4.616;2022-12-18T07:28:46;11.02;;;4.15;;
71087;SDS011;58747;50.674;4.616;2022-12-18T07:31:13;7.53;;;3.70;;
71087;SDS011;58747;50.674;4.616;2022-12-18T07:33:44;6.28;;;4.38;;
71087;SDS011;58747;50.674;4.616;2022-12-18T07:36:10;11.45;;;4.00;;
71087;SDS011;58747;50.674;4.616;2022-12-18T07:38:36;11.50;;;4.25;;
71087;SDS011;58747;50.674;4.616;2022-12-18T07:43:29;6.77;;;3.73;;
71087;SDS011;58747;50.674;4.616;2022-12-18T07:45:54;9.48;;;4.10;;
71087;SDS011;58747;50.674;4.616;2022-12-18T07:48:19;9.88;;;4.22;;
71087;SDS011;58747;50.674;4.616;2022-12-18T07:50:45;9.47;;;4.20;;
71087;SDS011;58747;50.674;4.616;2022-12-18T07:53:10;8.37;;;4.67;;
71087;SDS011;58747;50.674;4.616;2022-12-18T07:55:35;9.73;;;4.40;;
71087;SDS011;58747;50.674;4.616;2022-12-18T07:58:01;10.30;;;4.60;;
71087;SDS011;58747;50.674;4.616;2022-12-18T08:00:28;11.88;;;4.90;;
71087;SDS011;58747;50.674;4.616;2022-12-18T08:02:53;7.40;;;4.13;;
71087;SDS011;58747;50.674;4.616;2022-12-18T08:05:18;7.97;;;3.63;;
71087;SDS011;58747;50.674;4.616;2022-12-18T08:07:45;8.23;;;3.70;;
71087;SDS011;58747;50.674;4.616;2022-12-18T08:10:11;7.40;;;3.43;;
71087;SDS011;58747;50.674;4.616;2022-12-18T08:12:36;6.55;;;3.58;;
71087;SDS011;58747;50.674;4.616;2022-12-18T08:15:01;8.00;;;4.47;;
71087;SDS011;58747;50.674;4.616;2022-12-18T08:17:27;9.50;;;4.80;;
71087;SDS011;58747;50.674;4.616;2022-12-18T08:19:52;9.20;;;5.20;;
71087;SDS011;58747;50.674;4.616;2022-12-18T08:22:17;9.47;;;4.47;;
71087;SDS011;58747;50.674;4.616;2022-12-18T08:24:43;11.30;;;3.73;;
71087;SDS011;58747;50.674;4.616;2022-12-18T08:27:08;10.03;;;4.53;;
71087;SDS011;58747;50.674;4.616;2022-12-18T08:29:33;8.83;;;4.80;;
71087;SDS011;58747;50.674;4.616;2022-12-18T08:31:59;10.95;;;4.22;;
71087;SDS011;58747;50.674;4.616;2022-12-18T08:34:24;7.40;;;3.47;;
71087;SDS011;58747;50.674;4.616;2022-12-18T08:36:49;11.37;;;4.73;;
71087;SDS011;58747;50.674;4.616;2022-12-18T08:39:15;13.57;;;4.87;;
71087;SDS011;58747;50.674;4.616;2022-12-18T08:41:40;8.03;;;4.03;;
71087;SDS011;58747;50.674;4.616;2022-12-18T08:44:07;8.53;;;4.73;;
71087;SDS011;58747;50.674;4.616;2022-12-18T08:46:51;9.75;;;5.03;;
71087;SDS011;58747;50.674;4.616;2022-12-18T08:49:16;8.68;;;4.88;;
71087;SDS011;58747;50.674;4.616;2022-12-18T08:51:42;7.82;;;4.30;;
71087;SDS011;58747;50.674;4.616;2022-12-18T08:54:08;7.67;;;4.60;;
71087;SDS011;58747;50.674;4.616;2022-12-18T08:56:36;13.13;;;5.40;;
71087;SDS011;58747;50.674;4.616;2022-12-18T08:59:01;11.68;;;5.25;;
71087;SDS011;58747;50.674;4.616;2022-12-18T09:01:27;8.70;;;4.00;;
71087;SDS011;58747;50.674;4.616;2022-12-18T09:03:53;9.05;;;5.07;;
71087;SDS011;58747;50.674;4.616;2022-12-18T09:06:19;10.43;;;4.53;;
71087;SDS011;58747;50.674;4.616;2022-12-18T09:08:46;12.95;;;5.78;;
71087;SDS011;58747;50.674;4.616;2022-12-18T09:11:13;9.93;;;5.33;;
71087;SDS011;58747;50.674;4.616;2022-12-18T09:13:43;10.35;;;5.72;;
71087;SDS011;58747;50.674;4.616;2022-12-18T09:16:08;9.83;;;5.03;;
71087;SDS011;58747;50.674;4.616;2022-12-18T09:18:34;11.23;;;5.22;;
71087;SDS011;58747;50.674;4.616;2022-12-18T09:21:06;9.13;;;5.20;;
71087;SDS011;58747;50.674;4.616;2022-12-18T09:23:32;13.45;;;5.70;;
71087;SDS011;58747;50.674;4.616;2022-12-18T09:25:58;12.60;;;5.30;;
71087;SDS011;58747;50.674;4.616;2022-12-18T09:28:24;11.55;;;5.53;;
71087;SDS011;58747;50.674;4.616;2022-12-18T09:30:49;9.40;;;5.57;;
71087;SDS011;58747;50.674;4.616;2022-12-18T09:33:15;8.60;;;5.63;;
71087;SDS011;58747;50.674;4.616;2022-12-18T09:35:42;13.30;;;6.25;;
71087;SDS011;58747;50.674;4.616;2022-12-18T09:38:09;12.70;;;5.53;;
71087;SDS011;58747;50.674;4.616;2022-12-18T09:40:42;10.95;;;6.05;;
71087;SDS011;58747;50.674;4.616;2022-12-18T09:43:33;9.13;;;4.90;;
71087;SDS011;58747;50.674;4.616;2022-12-18T09:46:03;9.75;;;5.53;;
71087;SDS011;58747;50.674;4.616;2022-12-18T09:48:36;13.88;;;6.65;;
71087;SDS011;58747;50.674;4.616;2022-12-18T09:51:11;10.20;;;5.50;;
71087;SDS011;58747;50.674;4.616;2022-12-18T09:53:40;10.85;;;6.15;;
71087;SDS011;58747;50.674;4.616;2022-12-18T09:56:12;12.73;;;5.53;;
71087;SDS011;58747;50.674;4.616;2022-12-18T09:58:47;11.10;;;5.18;;
71087;SDS011;58747;50.674;4.616;2022-12-18T10:01:20;10.05;;;5.40;;
71087;SDS011;58747;50.674;4.616;2022-12-18T10:03:47;14.10;;;6.32;;
71087;SDS011;58747;50.674;4.616;2022-12-18T10:06:15;9.15;;;4.93;;
71087;SDS011;58747;50.674;4.616;2022-12-18T10:11:34;10.52;;;6.47;;
71087;SDS011;58747;50.674;4.616;2022-12-18T10:27:56;9.25;;;5.30;;
71087;SDS011;58747;50.674;4.616;2022-12-18T10:30:25;14.55;;;6.80;;
71087;SDS011;58747;50.674;4.616;2022-12-18T10:32:51;9.77;;;5.75;;
71087;SDS011;58747;50.674;4.616;2022-12-18T10:35:18;14.25;;;7.70;;
71087;SDS011;58747;50.674;4.616;2022-12-18T10:40:28;12.07;;;6.20;;
71087;SDS011;58747;50.674;4.616;2022-12-18T10:43:03;10.27;;;4.47;;
71087;SDS011;58747;50.674;4.616;2022-12-18T10:45:29;12.40;;;5.85;;
71087;SDS011;58747;50.674;4.616;2022-12-18T10:47:55;13.18;;;6.47;;
71087;SDS011;58747;50.674;4.616;2022-12-18T10:50:34;10.00;;;5.60;;
71087;SDS011;58747;50.674;4.616;2022-12-18T10:53:03;10.55;;;5.05;;
71087;SDS011;58747;50.674;4.616;2022-12-18T10:55:34;14.50;;;6.50;;
71087;SDS011;58747;50.674;4.616;2022-12-18T10:58:24;8.25;;;4.32;;
71087;SDS011;58747;50.674;4.616;2022-12-18T11:03:44;10.73;;;5.77;;
71087;SDS011;58747;50.674;4.616;2022-12-18T11:06:17;13.02;;;6.53;;
71087;SDS011;58747;50.674;4.616;2022-12-18T11:08:57;8.93;;;5.97;;
71087;SDS011;58747;50.674;4.616;2022-12-18T11:11:29;11.00;;;6.20;;
71087;SDS011;58747;50.674;4.616;2022-12-18T11:14:04;13.35;;;6.97;;
71087;SDS011;58747;50.674;4.616;2022-12-18T11:16:43;13.13;;;6.23;;
71087;SDS011;58747;50.674;4.616;2022-12-18T11:21:57;7.30;;;4.13;;
71087;SDS011;58747;50.674;4.616;2022-12-18T11:24:31;12.05;;;6.53;;
71087;SDS011;58747;50.674;4.616;2022-12-18T11:27:04;10.88;;;5.50;;
71087;SDS011;58747;50.674;4.616;2022-12-18T11:29:32;12.47;;;5.93;;
71087;SDS011;58747;50.674;4.616;2022-12-18T11:32:25;12.27;;;6.22;;
71087;SDS011;58747;50.674;4.616;2022-12-18T11:34:58;13.18;;;7.38;;
71087;SDS011;58747;50.674;4.616;2022-12-18T11:37:27;14.18;;;7.28;;
71087;SDS011;58747;50.674;4.616;2022-12-18T11:40:01;17.92;;;8.23;;
71087;SDS011;58747;50.674;4.616;2022-12-18T11:42:48;15.33;;;7.37;;
71087;SDS011;58747;50.674;4.616;2022-12-18T11:45:35;14.52;;;6.40;;
71087;SDS011;58747;50.674;4.616;2022-12-18T11:48:34;16.92;;;9.30;;
71087;SDS011;58747;50.674;4.616;2022-12-18T11:51:31;14.23;;;7.13;;
71087;SDS011;58747;50.674;4.616;2022-12-18T11:54:00;16.67;;;7.47;;
71087;SDS011;58747;50.674;4.616;2022-12-18T11:56:36;17.77;;;7.63;;
71087;SDS011;58747;50.674;4.616;2022-12-18T12:02:14;13.25;;;6.55;;
71087;SDS011;58747;50.674;4.616;2022-12-18T12:07:55;15.50;;;8.30;;
71087;SDS011;58747;50.674;4.616;2022-12-18T12:13:45;12.75;;;6.75;;
71087;SDS011;58747;50.674;4.616;2022-12-18T12:17:14;16.48;;;9.45;;
71087;SDS011;58747;50.674;4.616;2022-12-18T12:19:42;15.43;;;7.65;;
71087;SDS011;58747;50.674;4.616;2022-12-18T12:30:30;12.90;;;7.75;;
71087;SDS011;58747;50.674;4.616;2022-12-18T12:33:09;14.43;;;8.20;;
71087;SDS011;58747;50.674;4.616;2022-12-18T12:38:43;14.23;;;7.40;;
71087;SDS011;58747;50.674;4.616;2022-12-18T12:41:16;15.45;;;9.00;;
71087;SDS011;58747;50.674;4.616;2022-12-18T12:44:05;14.95;;;8.23;;
71087;SDS011;58747;50.674;4.616;2022-12-18T12:46:35;14.20;;;7.22;;
71087;SDS011;58747;50.674;4.616;2022-12-18T12:49:09;16.13;;;8.07;;
71087;SDS011;58747;50.674;4.616;2022-12-18T12:51:40;16.70;;;8.60;;
71087;SDS011;58747;50.674;4.616;2022-12-18T12:54:17;16.13;;;8.57;;
71087;SDS011;58747;50.674;4.616;2022-12-18T12:59:31;22.05;;;9.18;;
71087;SDS011;58747;50.674;4.616;2022-12-18T13:02:26;20.13;;;8.85;;
71087;SDS011;58747;50.674;4.616;2022-12-18T13:07:36;15.13;;;8.10;;
71087;SDS011;58747;50.674;4.616;2022-12-18T13:15:37;20.20;;;8.68;;
71087;SDS011;58747;50.674;4.616;2022-12-18T13:18:09;16.00;;;8.80;;
71087;SDS011;58747;50.674;4.616;2022-12-18T13:23:25;19.77;;;9.23;;
71087;SDS011;58747;50.674;4.616;2022-12-18T13:25:54;19.30;;;9.02;;
71087;SDS011;58747;50.674;4.616;2022-12-18T13:31:14;17.95;;;8.27;;
71087;SDS011;58747;50.674;4.616;2022-12-18T13:36:46;21.20;;;10.07;;
71087;SDS011;58747;50.674;4.616;2022-12-18T13:41:46;14.43;;;7.40;;
71087;SDS011;58747;50.674;4.616;2022-12-18T13:46:48;19.85;;;10.35;;
71087;SDS011;58747;50.674;4.616;2022-12-18T13:49:19;18.52;;;9.88;;
71087;SDS011;58747;50.674;4.616;2022-12-18T13:52:16;25.95;;;10.93;;
71087;SDS011;58747;50.674;4.616;2022-12-18T13:54:45;18.88;;;9.63;;
71087;SDS011;58747;50.674;4.616;2022-12-18T13:57:27;21.40;;;10.77;;
71087;SDS011;58747;50.674;4.616;2022-12-18T13:59:58;20.45;;;10.20;;
71087;SDS011;58747;50.674;4.616;2022-12-18T14:02:44;20.25;;;10.02;;
71087;SDS011;58747;50.674;4.616;2022-12-18T14:05:23;19.25;;;9.63;;
71087;SDS011;58747;50.674;4.616;2022-12-18T14:07:51;19.75;;;10.57;;
71087;SDS011;58747;50.674;4.616;2022-12-18T14:10:18;23.73;;;10.38;;
71087;SDS011;58747;50.674;4.616;2022-12-18T14:12:45;24.65;;;11.68;;
71087;SDS011;58747;50.674;4.616;2022-12-18T14:15:24;21.30;;;10.93;;
71087;SDS011;58747;50.674;4.616;2022-12-18T14:17:58;24.20;;;11.77;;
71087;SDS011;58747;50.674;4.616;2022-12-18T14:20:26;22.90;;;11.80;;
71087;SDS011;58747;50.674;4.616;2022-12-18T14:22:54;27.52;;;12.70;;
71087;SDS011;58747;50.674;4.616;2022-12-18T14:25:25;22.48;;;11.73;;
71087;SDS011;58747;50.674;4.616;2022-12-18T14:30:35;20.48;;;10.02;;
71087;SDS011;58747;50.674;4.616;2022-12-18T14:35:39;19.67;;;10.40;;
71087;SDS011;58747;50.674;4.616;2022-12-18T14:38:34;20.38;;;11.82;;
71087;SDS011;58747;50.674;4.616;2022-12-18T14:41:02;20.63;;;10.70;;
71087;SDS011;58747;50.674;4.616;2022-12-18T14:43:32;21.70;;;11.13;;
71087;SDS011;58747;50.674;4.616;2022-12-18T14:45:59;19.63;;;8.52;;
71087;SDS011;58747;50.674;4.616;2022-12-18T14:48:36;21.30;;;10.55;;
71087;SDS011;58747;50.674;4.616;2022-12-18T14:56:43;25.05;;;11.48;;
71087;SDS011;58747;50.674;4.616;2022-12-18T14:59:05;20.83;;;10.93;;
71087;SDS011;58747;50.674;4.616;2022-12-18T15:01:39;21.90;;;10.90;;
71087;SDS011;58747;50.674;4.616;2022-12-18T15:04:23;28.35;;;12.07;;
71087;SDS011;58747;50.674;4.616;2022-12-18T15:06:50;23.58;;;10.50;;
71087;SDS011;58747;50.674;4.616;2022-12-18T15:09:28;20.83;;;10.07;;
71087;SDS011;58747;50.674;4.616;2022-12-18T15:11:57;23.23;;;11.87;;
71087;SDS011;58747;50.674;4.616;2022-12-18T15:14:32;24.70;;;11.20;;
71087;SDS011;58747;50.674;4.616;2022-12-18T15:17:00;18.30;;;9.52;;
71087;SDS011;58747;50.674;4.616;2022-12-18T15:19:35;24.95;;;11.32;;
71087;SDS011;58747;50.674;4.616;2022-12-18T15:22:04;21.15;;;9.98;;
71087;SDS011;58747;50.674;4.616;2022-12-18T15:24:45;20.38;;;11.07;;
71087;SDS011;58747;50.674;4.616;2022-12-18T15:27:20;22.75;;;10.55;;
71087;SDS011;58747;50.674;4.616;2022-12-18T15:30:22;25.33;;;11.07;;
71087;SDS011;58747;50.674;4.616;2022-12-18T15:32:43;16.83;;;8.17;;
71087;SDS011;58747;50.674;4.616;2022-12-18T15:35:22;22.30;;;10.38;;
71087;SDS011;58747;50.674;4.616;2022-12-18T15:37:50;23.27;;;11.18;;
71087;SDS011;58747;50.674;4.616;2022-12-18T15:40:17;28.67;;;11.15;;
71087;SDS011;58747;50.674;4.616;2022-12-18T15:42:47;23.52;;;10.05;;
71087;SDS011;58747;50.674;4.616;2022-12-18T15:45:33;20.20;;;9.20;;
71087;SDS011;58747;50.674;4.616;2022-12-18T15:47:58;23.95;;;9.93;;
71087;SDS011;58747;50.674;4.616;2022-12-18T15:50:24;23.30;;;10.70;;
71087;SDS011;58747;50.674;4.616;2022-12-18T15:52:51;23.88;;;11.07;;
71087;SDS011;58747;50.674;4.616;2022-12-18T15:55:22;23.88;;;9.82;;
71087;SDS011;58747;50.674;4.616;2022-12-18T15:58:08;24.70;;;10.82;;
71087;SDS011;58747;50.674;4.616;2022-12-18T16:00:34;24.95;;;11.88;;
71087;SDS011;58747;50.674;4.616;2022-12-18T16:03:01;23.75;;;11.10;;
71087;SDS011;58747;50.674;4.616;2022-12-18T16:05:28;26.10;;;11.35;;
71087;SDS011;58747;50.674;4.616;2022-12-18T16:07:54;22.63;;;10.40;;
71087;SDS011;58747;50.674;4.616;2022-12-18T16:10:19;25.13;;;11.23;;
71087;SDS011;58747;50.674;4.616;2022-12-18T16:12:45;24.13;;;11.30;;
71087;SDS011;58747;50.674;4.616;2022-12-18T16:15:12;23.52;;;10.65;;
71087;SDS011;58747;50.674;4.616;2022-12-18T16:17:42;26.27;;;10.75;;
71087;SDS011;58747;50.674;4.616;2022-12-18T16:20:12;24.05;;;11.00;;
71087;SDS011;58747;50.674;4.616;2022-12-18T16:22:42;20.25;;;10.45;;
71087;SDS011;58747;50.674;4.616;2022-12-18T16:25:15;21.52;;;10.48;;
71087;SDS011;58747;50.674;4.616;2022-12-18T16:27:49;25.27;;;9.85;;
71087;SDS011;58747;50.674;4.616;2022-12-18T16:30:15;23.83;;;12.32;;
71087;SDS011;58747;50.674;4.616;2022-12-18T16:32:42;16.63;;;9.65;;
71087;SDS011;58747;50.674;4.616;2022-12-18T16:35:09;21.70;;;11.43;;
71087;SDS011;58747;50.674;4.616;2022-12-18T16:37:36;23.48;;;11.65;;
71087;SDS011;58747;50.674;4.616;2022-12-18T16:40:01;23.63;;;11.13;;
71087;SDS011;58747;50.674;4.616;2022-12-18T16:42:26;24.13;;;11.37;;
71087;SDS011;58747;50.674;4.616;2022-12-18T16:44:52;25.37;;;11.97;;